Time;durP1;ratioP1;P1;durP2;ratioP2;P2;SDS_P1;SDS_P2;PMS_P1;PMS_P2;Temp;Humidity;BMP_temperature;BMP_pressure;BME280_temperature;BME280_humidity;BME280_pressure;Samples;Min_cycle;Max_cycle;Signal;HPM_P1;HPM_P2
2021/04/08 00:02:04;;;;;;;19.88;16.08;;;5.80;91.30;;;;;;5106387;28;20024;-78
2021/04/08 00:04:30;;;;;;;19.10;13.60;;;5.90;91.10;;;;;;5095776;28;20059;-78
2021/04/08 00:06:56;;;;;;;19.55;15.18;;;5.80;90.80;;;;;;5095442;28;20054;-80
2021/04/08 00:09:25;;;;;;;22.15;14.93;;;5.70;90.90;;;;;;5077351;28;20052;-83
2021/04/08 00:12:02;;;;;;;20.45;14.68;;;5.70;90.90;;;;;;5077055;28;20527;-82
2021/04/08 00:14:30;;;;;;;18.08;12.40;;;5.60;90.90;;;;;;5095182;28;20066;-82
2021/04/08 00:16:56;;;;;;;19.23;14.07;;;5.60;90.90;;;;;;5095286;28;20028;-78
2021/04/08 00:19:22;;;;;;;17.25;13.65;;;5.50;90.90;;;;;;5077077;28;20086;-80
2021/04/08 00:21:48;;;;;;;16.83;13.00;;;5.50;90.90;;;;;;5076995;28;20024;-80
2021/04/08 00:24:14;;;;;;;16.55;12.45;;;5.50;90.90;;;;;;5095007;28;20020;-78
2021/04/08 00:26:39;;;;;;;16.10;12.80;;;5.40;90.90;;;;;;5095160;28;20433;-79
2021/04/08 00:29:05;;;;;;;19.58;13.52;;;5.40;91.00;;;;;;5076783;28;20016;-79
2021/04/08 00:31:31;;;;;;;19.63;13.45;;;5.30;91.10;;;;;;5094831;28;20103;-79
2021/04/08 00:33:57;;;;;;;18.00;13.45;;;5.40;91.10;;;;;;5076811;28;20028;-80
2021/04/08 00:36:23;;;;;;;19.60;13.85;;;5.40;91.00;;;;;;5093847;28;20416;-79
2021/04/08 00:38:48;;;;;;;17.90;12.98;;;5.40;91.00;;;;;;5094771;28;20054;-78
2021/04/08 00:41:14;;;;;;;18.05;13.10;;;5.40;91.10;;;;;;5094739;28;20138;-79
2021/04/08 00:43:40;;;;;;;19.75;14.15;;;5.30;91.10;;;;;;5094723;28;20111;-77
2021/04/08 00:46:06;;;;;;;21.48;13.82;;;5.40;91.10;;;;;;5076201;28;20077;-77
2021/04/08 00:48:32;;;;;;;19.70;12.38;;;5.40;91.10;;;;;;5094824;28;20028;-78
2021/04/08 00:50:57;;;;;;;18.42;14.32;;;5.40;91.10;;;;;;5094608;28;20020;-78
2021/04/08 00:53:26;;;;;;;19.10;14.73;;;5.30;91.10;;;;;;5094279;28;20049;-79
2021/04/08 00:55:54;;;;;;;16.13;11.93;;;5.40;91.20;;;;;;5076133;28;20074;-78
2021/04/08 00:58:20;;;;;;;16.48;11.70;;;5.40;91.10;;;;;;5094442;28;20066;-79
2021/04/08 01:00:48;;;;;;;16.67;13.87;;;5.40;91.10;;;;;;5094554;28;20023;-78
2021/04/08 01:03:14;;;;;;;18.73;13.65;;;5.40;91.20;;;;;;5076342;28;20028;-78
2021/04/08 01:05:41;;;;;;;18.23;12.27;;;5.50;91.10;;;;;;5094259;28;20052;-80
2021/04/08 01:08:07;;;;;;;15.40;11.02;;;5.40;91.00;;;;;;5094186;28;20112;-80
2021/04/08 01:10:33;;;;;;;18.35;13.15;;;5.30;91.00;;;;;;5093888;28;20393;-80
2021/04/08 01:13:05;;;;;;;20.98;13.88;;;5.30;91.10;;;;;;5094458;28;20027;-79
2021/04/08 01:15:32;;;;;;;17.08;11.88;;;5.20;91.30;;;;;;5094214;28;20073;-79
2021/04/08 01:18:34;;;;;;;18.08;13.10;;;5.20;91.30;;;;;;5094184;28;20016;-80
2021/04/08 01:21:03;;;;;;;20.58;14.77;;;5.20;91.40;;;;;;5070261;28;20028;-78
2021/04/08 01:24:06;;;;;;;17.23;13.38;;;5.20;91.50;;;;;;5094009;28;20027;-79
2021/04/08 01:26:56;;;;;;;17.65;14.05;;;5.20;91.60;;;;;;5091707;28;20039;-79
2021/04/08 01:29:43;;;;;;;21.08;15.07;;;5.30;91.70;;;;;;5093862;28;20093;-79
2021/04/08 01:32:11;;;;;;;21.77;13.88;;;5.30;91.60;;;;;;5093727;28;20034;-78
2021/04/08 01:34:41;;;;;;;22.52;14.68;;;5.30;91.50;;;;;;5093905;28;20485;-80
2021/04/08 01:37:09;;;;;;;16.67;11.68;;;5.30;91.60;;;;;;5093491;28;20024;-79
2021/04/08 01:39:39;;;;;;;18.42;13.52;;;5.30;91.60;;;;;;5093756;28;20019;-78
2021/04/08 01:42:05;;;;;;;22.92;16.73;;;5.30;91.50;;;;;;5093736;28;20024;-79
2021/04/08 01:44:32;;;;;;;25.20;16.63;;;5.20;91.50;;;;;;5093374;28;20081;-80
2021/04/08 01:47:05;;;;;;;22.85;14.48;;;5.20;91.50;;;;;;5084909;28;20046;-78
2021/04/08 01:49:35;;;;;;;20.17;15.05;;;5.20;91.50;;;;;;5089621;28;20423;-78
2021/04/08 01:52:02;;;;;;;23.67;15.73;;;5.30;91.60;;;;;;5074130;28;20029;-79
2021/04/08 01:54:32;;;;;;;24.17;15.00;;;5.30;91.50;;;;;;5093301;28;20020;-79
2021/04/08 01:57:07;;;;;;;21.70;16.95;;;5.40;91.50;;;;;;5093157;28;20028;-78
2021/04/08 01:59:35;;;;;;;22.45;16.40;;;5.40;91.40;;;;;;5093213;28;20020;-79
2021/04/08 02:02:01;;;;;;;20.80;15.65;;;5.40;91.30;;;;;;5093276;28;20027;-80
2021/04/08 02:04:29;;;;;;;21.52;15.50;;;5.40;91.20;;;;;;5092817;28;20032;-79
2021/04/08 02:06:55;;;;;;;;;;;5.30;91.20;;;;;;5093535;28;20035;-79
2021/04/08 02:09:23;;;;;;;20.35;14.88;;;5.30;91.20;;;;;;5093215;28;19946;-78
2021/04/08 02:11:49;;;;;;;25.00;15.93;;;5.30;91.30;;;;;;5092824;28;20569;-79
2021/04/08 02:14:16;;;;;;;22.98;15.77;;;5.30;91.30;;;;;;5093747;28;20111;-81
2021/04/08 02:16:46;;;;;;;23.67;18.08;;;5.30;91.50;;;;;;5093070;28;20040;-79
2021/04/08 02:19:13;;;;;;;24.85;16.38;;;5.30;91.50;;;;;;5093017;28;20021;-80
2021/04/08 02:21:44;;;;;;;23.42;15.75;;;5.30;91.50;;;;;;5093029;28;20031;-79
2021/04/08 02:24:12;;;;;;;21.75;15.02;;;5.40;91.40;;;;;;5095248;28;20145;-80
2021/04/08 02:26:42;;;;;;;25.10;17.63;;;5.40;91.40;;;;;;5093079;28;20031;-79
2021/04/08 02:29:09;;;;;;;22.83;17.13;;;5.40;91.40;;;;;;5092897;28;20032;-78
2021/04/08 02:31:38;;;;;;;26.60;18.92;;;5.40;91.40;;;;;;5074635;28;20024;-80
2021/04/08 02:34:08;;;;;;;30.90;18.70;;;5.40;91.40;;;;;;5092404;28;20050;-79
2021/04/08 02:36:37;;;;;;;28.48;19.23;;;5.30;91.40;;;;;;5092856;28;20430;-78
2021/04/08 02:39:07;;;;;;;29.50;17.08;;;5.20;91.60;;;;;;5092414;28;20012;-80
2021/04/08 02:41:41;;;;;;;28.48;18.60;;;5.00;91.90;;;;;;5074452;28;20459;-80
2021/04/08 02:44:07;;;;;;;29.63;19.75;;;4.90;92.20;;;;;;5092390;28;20028;-79
2021/04/08 02:46:33;;;;;;;34.75;20.33;;;4.90;92.40;;;;;;5092619;28;20081;-79
2021/04/08 02:48:59;;;;;;;32.25;20.92;;;4.80;92.40;;;;;;5092876;28;20111;-79
2021/04/08 02:51:32;;;;;;;40.08;25.25;;;4.80;92.50;;;;;;5092744;28;20024;-79
2021/04/08 02:54:22;;;;;;;36.63;24.10;;;4.90;92.60;;;;;;5093245;28;20021;-79
2021/04/08 02:56:57;;;;;;;42.35;26.95;;;4.80;92.60;;;;;;5092925;28;20016;-79
2021/04/08 02:59:29;;;;;;;43.85;26.05;;;4.80;92.70;;;;;;5092626;28;20016;-77
2021/04/08 03:02:09;;;;;;;45.25;27.63;;;4.80;92.70;;;;;;5092573;28;20024;-79
2021/04/08 03:04:43;;;;;;;44.08;29.52;;;4.70;92.80;;;;;;5074186;28;20055;-78
2021/04/08 03:07:10;;;;;;;37.88;22.42;;;4.90;92.90;;;;;;5074225;28;20032;-79
2021/04/08 03:09:39;;;;;;;38.20;23.13;;;4.90;92.60;;;;;;5092385;28;20089;-79
2021/04/08 03:12:07;;;;;;;37.97;21.95;;;4.80;92.70;;;;;;5092223;28;20044;-81
2021/04/08 03:14:38;;;;;;;39.50;22.95;;;4.70;92.80;;;;;;5092775;28;20031;-82
2021/04/08 03:17:05;;;;;;;36.78;21.75;;;4.70;92.90;;;;;;5096189;28;20035;-79
2021/04/08 03:19:32;;;;;;;32.45;20.30;;;4.70;92.90;;;;;;5078103;28;20035;-78
2021/04/08 03:21:59;;;;;;;27.58;18.05;;;4.60;93.00;;;;;;5078169;28;20115;-80
2021/04/08 03:24:27;;;;;;;33.00;17.17;;;4.60;93.20;;;;;;5096065;28;20069;-79
2021/04/08 03:26:53;;;;;;;29.63;19.05;;;4.60;93.20;;;;;;5096082;28;20377;-78
2021/04/08 03:29:20;;;;;;;30.45;16.35;;;4.40;93.40;;;;;;5096210;28;20031;-80
2021/04/08 03:31:46;;;;;;;30.58;16.55;;;4.30;93.70;;;;;;5096058;28;20024;-80
2021/04/08 03:34:13;;;;;;;32.80;18.30;;;4.20;94.00;;;;;;5096375;28;20105;-78
2021/04/08 03:36:40;;;;;;;28.07;17.37;;;4.20;94.40;;;;;;5096277;28;20024;-80
2021/04/08 03:39:07;;;;;;;29.45;17.90;;;4.10;94.60;;;;;;5096180;28;20012;-80
2021/04/08 03:41:40;;;;;;;34.53;20.60;;;4.10;94.90;;;;;;5096661;28;20538;-79
2021/04/08 03:44:09;;;;;;;33.55;18.90;;;4.10;95.10;;;;;;5095611;28;20032;-79
2021/04/08 03:46:37;;;;;;;35.20;18.77;;;4.10;95.20;;;;;;5096012;28;20024;-78
2021/04/08 03:49:03;;;;;;;;;;;4.20;95.40;;;;;;5096293;28;20028;-79
2021/04/08 03:51:30;;;;;;;33.42;18.45;;;4.20;95.20;;;;;;5094655;28;19915;-80
2021/04/08 03:53:57;;;;;;;36.28;18.33;;;4.30;95.70;;;;;;5096684;28;20061;-80
2021/04/08 03:56:24;;;;;;;34.33;19.33;;;4.40;95.50;;;;;;5095342;28;20028;-79
2021/04/08 03:58:52;;;;;;;;;;;4.30;95.40;;;;;;5096140;28;20034;-77
2021/04/08 04:01:20;;;;;;;37.83;19.00;;;4.30;95.30;;;;;;5095416;28;19965;-78
2021/04/08 04:03:47;;;;;;;33.55;18.70;;;4.30;95.60;;;;;;5077291;28;20032;-80
2021/04/08 04:06:13;;;;;;;33.65;19.73;;;4.30;95.70;;;;;;5095246;28;20024;-80
2021/04/08 04:08:40;;;;;;;40.13;21.77;;;4.30;95.90;;;;;;5077377;28;20073;-80
2021/04/08 04:11:06;;;;;;;35.13;19.73;;;4.30;96.20;;;;;;5094506;28;20048;-79
2021/04/08 04:13:33;;;;;;;19.42;11.63;;;4.30;96.00;;;;;;5094005;28;20077;-81
2021/04/08 04:16:00;;;;;;;27.13;13.95;;;4.20;96.10;;;;;;5094255;28;20089;-79
2021/04/08 04:18:26;;;;;;;30.63;16.35;;;4.00;96.20;;;;;;5080140;28;20051;-79
2021/04/08 04:20:52;;;;;;;24.13;13.82;;;3.90;96.80;;;;;;5096025;28;20024;-80
2021/04/08 04:23:18;;;;;;;23.42;11.70;;;3.90;96.80;;;;;;5075182;28;20028;-79
2021/04/08 04:25:44;;;;;;;22.77;12.25;;;3.80;96.80;;;;;;5093235;28;20023;-80
2021/04/08 04:28:10;;;;;;;15.82;9.00;;;3.80;96.90;;;;;;5076076;28;20032;-79
2021/04/08 04:30:35;;;;;;;18.95;10.90;;;3.80;96.90;;;;;;5093542;28;20016;-79
2021/04/08 04:33:02;;;;;;;13.95;9.20;;;3.70;97.00;;;;;;5095680;28;20024;-81
2021/04/08 04:35:28;;;;;;;15.40;8.75;;;3.70;97.00;;;;;;5094515;28;20100;-80
2021/04/08 04:37:53;;;;;;;15.68;8.02;;;3.70;97.10;;;;;;5093424;28;20036;-78
2021/04/08 04:40:19;;;;;;;17.65;9.40;;;3.70;97.20;;;;;;5093351;28;20024;-80
2021/04/08 04:42:45;;;;;;;13.77;8.85;;;3.60;97.00;;;;;;5094417;28;20024;-80
2021/04/08 04:45:13;;;;;;;15.65;7.40;;;3.60;97.00;;;;;;5094266;28;20016;-80
2021/04/08 04:47:40;;;;;;;15.30;8.88;;;3.60;97.20;;;;;;5093269;28;20032;-78
2021/04/08 04:50:09;;;;;;;12.60;7.10;;;3.60;97.30;;;;;;5093423;28;20103;-79
2021/04/08 04:52:35;;;;;;;12.55;8.43;;;3.60;97.40;;;;;;5093886;28;20026;-79
2021/04/08 04:55:00;;;;;;;11.10;8.32;;;3.60;97.20;;;;;;5093602;28;20024;-79
2021/04/08 04:57:26;;;;;;;11.43;6.60;;;3.60;97.30;;;;;;5093765;28;20032;-78
2021/04/08 04:59:52;;;;;;;15.82;7.60;;;3.70;97.60;;;;;;5093297;28;20020;-79
2021/04/08 05:02:18;;;;;;;12.15;8.98;;;3.60;97.00;;;;;;5093139;28;20024;-79
2021/04/08 05:04:43;;;;;;;10.05;6.57;;;3.60;97.30;;;;;;5093268;28;20503;-80
2021/04/08 05:07:09;;;;;;;9.68;7.05;;;3.70;97.30;;;;;;5093360;28;20028;-79
2021/04/08 05:09:35;;;;;;;12.27;7.97;;;3.80;97.10;;;;;;5075064;28;20111;-80
2021/04/08 05:12:01;;;;;;;13.88;7.35;;;3.90;97.00;;;;;;5063731;28;852212;-80
2021/04/08 05:14:27;;;;;;;12.68;8.05;;;4.00;96.90;;;;;;5093468;28;20024;-79
2021/04/08 05:16:54;;;;;;;14.00;7.63;;;4.20;96.60;;;;;;5093616;28;20388;-79
2021/04/08 05:19:20;;;;;;;9.65;6.85;;;4.00;96.10;;;;;;5093869;28;20404;-80
2021/04/08 05:21:49;;;;;;;11.88;6.55;;;3.90;96.10;;;;;;5093280;28;20105;-79
2021/04/08 05:24:15;;;;;;;13.95;8.10;;;3.70;96.40;;;;;;5094226;28;20039;-81
2021/04/08 05:26:41;;;;;;;9.13;6.43;;;3.60;96.60;;;;;;5093654;28;20032;-81
2021/04/08 05:29:07;;;;;;;10.93;6.75;;;3.60;96.60;;;;;;5093886;28;20024;-80
2021/04/08 05:31:33;;;;;;;10.82;7.05;;;3.40;96.50;;;;;;5096689;28;20016;-80
2021/04/08 05:33:59;;;;;;;10.25;6.93;;;3.40;97.00;;;;;;5094644;28;20028;-80
2021/04/08 05:36:25;;;;;;;10.38;7.47;;;3.50;97.00;;;;;;5075471;28;20035;-81
2021/04/08 05:38:51;;;;;;;9.88;6.68;;;3.60;97.00;;;;;;5092362;28;20111;-81
2021/04/08 05:41:16;;;;;;;8.18;6.20;;;3.60;96.80;;;;;;5083060;28;20021;-79
2021/04/08 05:43:43;;;;;;;9.13;5.85;;;3.60;96.70;;;;;;5087698;28;20028;-81
2021/04/08 05:46:10;;;;;;;13.98;6.30;;;3.50;96.60;;;;;;5093956;28;20021;-80
2021/04/08 05:48:36;;;;;;;17.20;7.87;;;3.40;96.70;;;;;;5097643;28;20024;-82
2021/04/08 05:51:02;;;;;;;9.05;6.45;;;3.30;96.60;;;;;;5075736;28;20024;-83
2021/04/08 05:53:29;;;;;;;7.93;5.53;;;3.30;96.70;;;;;;5093932;28;20028;-81
2021/04/08 05:55:55;;;;;;;11.07;6.25;;;3.40;96.60;;;;;;5074537;28;20066;-82
2021/04/08 05:58:23;;;;;;;7.95;5.70;;;3.30;96.10;;;;;;5091945;28;20789;-79
2021/04/08 06:00:57;;;;;;;7.78;5.80;;;3.20;96.30;;;;;;5067415;28;20595;-81
2021/04/08 06:03:23;;;;;;;8.35;6.43;;;3.20;96.50;;;;;;5093369;28;20027;-81
2021/04/08 06:05:49;;;;;;;8.07;6.00;;;3.30;96.40;;;;;;5093348;28;20035;-82
2021/04/08 06:08:18;;;;;;;10.52;5.70;;;3.30;96.50;;;;;;5090415;28;20384;-82
2021/04/08 06:10:44;;;;;;;8.60;5.72;;;3.30;96.20;;;;;;5087936;28;20115;-81
2021/04/08 06:13:10;;;;;;;7.63;5.57;;;3.30;96.40;;;;;;5074824;28;20138;-80
2021/04/08 06:15:39;;;;;;;9.20;6.88;;;3.30;96.20;;;;;;5092656;28;20487;-82
2021/04/08 06:18:05;;;;;;;12.75;7.30;;;3.20;96.00;;;;;;5092331;28;20503;-82
2021/04/08 06:20:33;;;;;;;10.80;7.97;;;3.10;96.10;;;;;;5091852;28;20106;-79
2021/04/08 06:22:59;;;;;;;8.55;6.82;;;3.10;96.20;;;;;;5092707;28;20020;-80
2021/04/08 06:25:25;;;;;;;10.18;6.35;;;3.10;96.30;;;;;;5092621;28;20026;-80
2021/04/08 06:27:54;;;;;;;9.85;6.57;;;3.10;96.30;;;;;;5074786;28;20023;-79
2021/04/08 06:30:21;;;;;;;10.75;7.30;;;3.00;96.20;;;;;;5091519;28;20384;-82
2021/04/08 06:32:46;;;;;;;12.55;8.18;;;3.10;96.40;;;;;;5086259;28;20428;-81
2021/04/08 06:35:15;;;;;;;8.85;6.10;;;3.20;96.50;;;;;;5093680;28;20024;-80
2021/04/08 06:37:41;;;;;;;8.18;6.22;;;3.40;96.20;;;;;;5080567;28;20031;-82
2021/04/08 06:40:07;;;;;;;12.35;8.43;;;3.40;95.90;;;;;;5092859;28;20510;-80
2021/04/08 06:42:40;;;;;;;9.05;6.82;;;3.50;95.70;;;;;;5092077;28;20024;-81
2021/04/08 06:45:07;;;;;;;13.30;7.70;;;3.50;95.50;;;;;;5092327;28;20024;-79
2021/04/08 06:47:49;;;;;;;9.48;6.65;;;3.50;95.20;;;;;;5092385;28;20020;-81
2021/04/08 06:50:19;;;;;;;14.52;6.15;;;3.40;94.90;;;;;;5086228;28;20020;-81
2021/04/08 06:52:44;;;;;;;9.68;5.40;;;3.30;95.00;;;;;;5092075;28;20020;-80
2021/04/08 06:55:11;;;;;;;5.10;3.20;;;3.10;94.80;;;;;;5092245;28;20023;-83
2021/04/08 06:57:41;;;;;;;10.10;3.85;;;3.00;94.90;;;;;;5091959;28;20032;-81
2021/04/08 07:00:08;;;;;;;7.28;3.90;;;2.80;95.10;;;;;;5095112;28;20496;-79
2021/04/08 07:02:37;;;;;;;6.03;3.57;;;2.70;95.50;;;;;;5094384;28;20024;-80
2021/04/08 07:05:06;;;;;;;7.57;4.90;;;2.60;95.50;;;;;;5073810;28;20488;-79
2021/04/08 07:07:32;;;;;;;6.88;3.67;;;2.60;95.70;;;;;;5074617;28;20457;-80
2021/04/08 07:09:58;;;;;;;3.45;2.85;;;2.60;95.70;;;;;;5095532;28;20074;-82
2021/04/08 07:12:25;;;;;;;3.30;2.00;;;2.70;95.50;;;;;;5098470;28;20419;-80
2021/04/08 07:14:54;;;;;;;3.07;2.30;;;2.60;95.10;;;;;;5092572;28;20016;-80
2021/04/08 07:17:21;;;;;;;7.43;2.42;;;2.50;95.60;;;;;;5092311;28;20055;-80
2021/04/08 07:19:47;;;;;;;3.47;2.10;;;2.60;95.60;;;;;;5074355;28;20031;-80
2021/04/08 07:22:14;;;;;;;2.55;1.90;;;2.60;95.40;;;;;;5092268;28;20348;-81
2021/04/08 07:24:48;;;;;;;2.53;1.70;;;2.60;95.40;;;;;;5091852;28;20385;-79
2021/04/08 07:27:19;;;;;;;2.10;1.40;;;2.50;95.30;;;;;;5092363;28;20349;-80
2021/04/08 07:29:59;;;;;;;4.90;2.53;;;2.50;95.50;;;;;;5091867;28;20085;-81
2021/04/08 07:32:30;;;;;;;4.00;1.98;;;2.50;95.40;;;;;;5091954;28;20012;-79
2021/04/08 07:34:59;;;;;;;2.13;1.30;;;2.40;95.90;;;;;;5092440;28;20404;-81
2021/04/08 07:37:33;;;;;;;1.27;1.02;;;2.40;95.70;;;;;;5091992;28;20025;-80
2021/04/08 07:40:05;;;;;;;1.98;1.00;;;2.40;95.80;;;;;;5092436;28;20030;-80
2021/04/08 07:42:33;;;;;;;3.53;1.20;;;2.40;95.80;;;;;;5092833;28;20020;-80
2021/04/08 07:45:01;;;;;;;2.88;1.00;;;2.40;95.80;;;;;;5092263;28;20024;-79
2021/04/08 07:47:31;;;;;;;1.52;1.42;;;2.40;95.70;;;;;;5092184;28;20027;-79
2021/04/08 07:50:15;;;;;;;1.50;1.00;;;2.40;95.60;;;;;;5073919;28;20020;-79
2021/04/08 07:52:46;;;;;;;2.03;0.90;;;2.40;95.80;;;;;;5092026;28;20020;-78
2021/04/08 07:55:23;;;;;;;3.42;1.13;;;2.50;96.10;;;;;;5092620;28;20024;-78
2021/04/08 07:58:07;;;;;;;;;;;2.50;95.70;;;;;;5092823;28;20086;-79
2021/04/08 08:00:36;;;;;;;2.05;0.80;;;2.50;95.80;;;;;;5092614;28;19926;-79
2021/04/08 08:03:08;;;;;;;2.67;1.33;;;2.50;95.60;;;;;;5095492;28;20016;-80
2021/04/08 08:05:37;;;;;;;3.95;1.42;;;2.50;95.90;;;;;;5095306;28;20035;-80
2021/04/08 08:08:11;;;;;;;1.00;0.90;;;2.40;95.40;;;;;;5094967;28;20024;-80
2021/04/08 08:10:39;;;;;;;2.97;1.20;;;2.30;95.60;;;;;;5076661;28;20068;-81
2021/04/08 08:13:23;;;;;;;3.25;1.40;;;2.30;95.60;;;;;;5095102;28;20538;-81
2021/04/08 08:15:51;;;;;;;2.85;1.38;;;2.20;95.40;;;;;;5095331;28;20064;-79
2021/04/08 08:18:34;;;;;;;3.72;0.95;;;2.20;95.70;;;;;;5094925;28;20416;-79
2021/04/08 08:21:16;;;;;;;4.28;1.70;;;2.20;96.00;;;;;;5095162;28;20024;-80
2021/04/08 08:23:51;;;;;;;3.63;1.10;;;2.10;95.90;;;;;;5094576;28;20095;-79
2021/04/08 08:26:50;;;;;;;2.50;1.20;;;2.20;95.80;;;;;;5095043;28;20031;-78
2021/04/08 08:29:25;;;;;;;2.65;1.40;;;2.10;95.80;;;;;;5040308;28;20031;-79
2021/04/08 08:31:53;;;;;;;5.35;1.50;;;2.10;96.00;;;;;;5094932;28;20027;-80
2021/04/08 08:34:24;;;;;;;1.67;1.23;;;2.30;96.20;;;;;;5095027;28;20024;-79
2021/04/08 08:36:54;;;;;;;4.15;2.33;;;2.30;95.80;;;;;;5094674;28;20086;-81
2021/04/08 08:39:24;;;;;;;3.78;1.70;;;2.30;96.00;;;;;;5095107;28;20012;-81
2021/04/08 08:41:50;;;;;;;1.92;1.20;;;2.20;96.00;;;;;;5095989;28;20476;-81
2021/04/08 08:44:17;;;;;;;2.80;1.05;;;2.30;96.10;;;;;;5076967;28;20469;-82
2021/04/08 08:47:01;;;;;;;4.50;2.17;;;2.20;96.00;;;;;;5095564;28;20036;-79
2021/04/08 08:49:46;;;;;;;2.17;1.50;;;2.10;95.80;;;;;;5095864;28;20337;-81
2021/04/08 08:52:21;;;;;;;3.08;1.45;;;2.20;95.90;;;;;;5077269;28;20111;-80
2021/04/08 08:54:49;;;;;;;5.78;1.70;;;2.10;95.70;;;;;;5076362;28;20023;-79
2021/04/08 08:57:17;;;;;;;3.45;1.27;;;2.20;96.10;;;;;;5094578;28;20032;-80
2021/04/08 08:59:47;;;;;;;2.22;0.95;;;2.40;96.10;;;;;;5094458;28;20031;-80
2021/04/08 09:02:13;;;;;;;1.60;0.93;;;2.40;96.00;;;;;;5094186;28;20054;-80
2021/04/08 09:04:39;;;;;;;1.38;1.27;;;2.30;95.80;;;;;;5093950;28;20024;-79
2021/04/08 09:07:09;;;;;;;2.35;1.67;;;2.40;95.80;;;;;;5094116;28;20046;-80
2021/04/08 09:09:38;;;;;;;4.03;1.50;;;2.40;96.00;;;;;;5094191;28;20023;-82
2021/04/08 09:12:08;;;;;;;2.20;1.50;;;2.50;95.90;;;;;;5093256;28;20113;-81
2021/04/08 09:14:34;;;;;;;2.60;1.33;;;2.50;95.60;;;;;;5094202;28;20020;-80
2021/04/08 09:17:00;;;;;;;3.42;1.40;;;2.40;95.80;;;;;;5094007;28;20081;-79
2021/04/08 09:19:33;;;;;;;2.17;1.52;;;2.50;95.90;;;;;;5094787;28;20054;-80
2021/04/08 09:22:02;;;;;;;1.25;1.15;;;2.50;95.90;;;;;;5094376;28;20016;-80
2021/04/08 09:24:35;;;;;;;1.73;1.40;;;2.60;95.80;;;;;;5094786;28;20355;-81
2021/04/08 09:27:02;;;;;;;2.80;1.65;;;2.50;95.60;;;;;;5095605;28;20066;-81
2021/04/08 09:29:35;;;;;;;2.22;1.60;;;2.70;96.10;;;;;;5076986;28;20040;-80
2021/04/08 09:32:28;;;;;;;2.60;1.50;;;2.90;95.80;;;;;;5094000;28;20035;-80
2021/04/08 09:35:06;;;;;;;3.92;1.05;;;2.70;95.40;;;;;;5093734;28;20056;-79
2021/04/08 09:37:44;;;;;;;1.83;1.20;;;2.80;95.50;;;;;;5093633;28;20032;-80
2021/04/08 09:40:47;;;;;;;;;;;2.80;95.50;;;;;;5094193;28;20028;-81
2021/04/08 09:43:19;;;;;;;1.65;1.30;;;2.70;95.10;;;;;;5094392;28;20380;-82
2021/04/08 09:45:57;;;;;;;1.35;1.02;;;2.60;95.40;;;;;;5093430;28;20028;-82
2021/04/08 09:48:25;;;;;;;1.85;0.98;;;2.60;95.70;;;;;;5093674;28;20048;-81
2021/04/08 09:51:03;;;;;;;1.77;1.17;;;2.70;95.80;;;;;;5093561;28;20361;-83
2021/04/08 09:53:38;;;;;;;4.30;1.38;;;2.70;95.40;;;;;;5080715;28;20035;-82
2021/04/08 09:56:07;;;;;;;2.13;1.02;;;2.80;95.80;;;;;;5093248;28;20028;-82
2021/04/08 09:58:35;;;;;;;1.35;0.80;;;2.90;95.60;;;;;;5093315;28;20031;-82
2021/04/08 10:01:14;;;;;;;1.33;1.08;;;2.70;95.00;;;;;;5093212;28;20026;-82
2021/04/08 10:03:43;;;;;;;2.17;1.48;;;2.60;95.70;;;;;;5093240;28;20020;-80
2021/04/08 10:06:23;;;;;;;0.50;0.50;;;2.60;95.40;;;;;;5055936;28;20501;-81
2021/04/08 10:08:50;;;;;;;1.55;1.10;;;2.60;95.70;;;;;;5088359;28;20027;-81
2021/04/08 10:11:26;;;;;;;1.13;0.88;;;2.60;95.70;;;;;;5092972;28;20055;-83
2021/04/08 10:13:52;;;;;;;4.63;1.98;;;2.70;95.60;;;;;;5093346;28;20662;-82
2021/04/08 10:16:21;;;;;;;3.65;1.75;;;2.70;95.70;;;;;;5093262;28;20055;-81
2021/04/08 10:19:04;;;;;;;2.75;1.77;;;2.80;95.60;;;;;;5093009;28;20036;-81
2021/04/08 10:21:39;;;;;;;1.90;1.48;;;3.00;95.40;;;;;;5093848;28;20024;-82
2021/04/08 10:24:24;;;;;;;7.95;4.50;;;3.00;94.90;;;;;;5080238;28;20081;-80
2021/04/08 10:26:50;;;;;;;6.63;1.80;;;2.90;94.90;;;;;;5095481;28;20119;-82
2021/04/08 10:29:39;;;;;;;3.70;1.73;;;2.90;94.90;;;;;;5095854;28;20421;-81
2021/04/08 10:32:05;;;;;;;2.08;1.40;;;3.10;95.10;;;;;;5092725;28;20438;-81
2021/04/08 10:34:57;;;;;;;4.38;2.55;;;3.00;94.50;;;;;;5092498;28;20024;-81
2021/04/08 10:37:46;;;;;;;3.28;1.48;;;3.00;94.60;;;;;;5084812;28;20401;-81
2021/04/08 10:40:20;;;;;;;4.03;2.00;;;3.00;94.50;;;;;;5074617;28;20030;-80
2021/04/08 10:42:46;;;;;;;2.47;2.28;;;3.00;94.60;;;;;;5079446;28;20024;-80
2021/04/08 10:45:13;;;;;;;4.10;2.20;;;3.00;94.50;;;;;;5093071;28;20051;-82
2021/04/08 10:47:39;;;;;;;2.17;1.73;;;3.00;94.50;;;;;;5092806;28;20024;-80
2021/04/08 10:50:06;;;;;;;5.88;2.70;;;2.90;94.10;;;;;;5074487;28;20070;-82
2021/04/08 10:52:35;;;;;;;1.98;1.77;;;2.80;94.30;;;;;;5092436;28;20020;-82
2021/04/08 10:55:12;;;;;;;4.90;2.17;;;2.80;94.20;;;;;;5094724;28;20020;-81
2021/04/08 10:57:39;;;;;;;;;;;2.80;94.10;;;;;;5092718;28;20123;-81
2021/04/08 11:00:17;;;;;;;2.47;1.73;;;2.70;94.30;;;;;;5092397;28;19904;-83
2021/04/08 11:02:46;;;;;;;5.22;2.90;;;2.60;94.30;;;;;;5074314;28;20473;-81
2021/04/08 11:05:24;;;;;;;10.25;4.88;;;2.80;95.10;;;;;;5092789;28;20393;-81
2021/04/08 11:07:56;;;;;;;5.47;2.50;;;3.00;95.00;;;;;;5074154;28;20043;-80
2021/04/08 11:10:33;;;;;;;4.78;1.88;;;3.20;94.90;;;;;;5060591;28;20389;-81
2021/04/08 11:13:00;;;;;;;4.20;2.45;;;3.30;94.40;;;;;;5074628;28;20050;-81
2021/04/08 11:15:30;;;;;;;;;;;3.30;94.20;;;;;;5093164;28;20422;-81
2021/04/08 11:18:36;;;;;;;4.72;2.40;;;3.40;94.00;;;;;;5076741;28;20281;-81
2021/04/08 11:21:03;;;;;;;7.07;2.38;;;3.60;94.10;;;;;;5000697;28;20030;-80
2021/04/08 11:23:32;;;;;;;7.93;2.70;;;3.60;93.30;;;;;;5075197;28;20043;-80
2021/04/08 11:26:06;;;;;;;11.30;2.03;;;3.70;93.40;;;;;;5074140;28;20036;-81
2021/04/08 11:28:33;;;;;;;5.13;2.90;;;3.90;93.30;;;;;;5091986;28;20107;-81
2021/04/08 11:31:40;;;;;;;5.75;2.58;;;3.90;92.90;;;;;;5073753;28;20551;-81
2021/04/08 11:34:06;;;;;;;6.38;2.63;;;4.00;92.40;;;;;;5037787;28;20426;-81
2021/04/08 11:36:32;;;;;;;9.23;3.40;;;4.30;92.60;;;;;;5094764;28;20116;-82
2021/04/08 11:39:09;;;;;;;6.25;3.42;;;4.30;91.90;;;;;;5096561;28;20027;-81
2021/04/08 11:41:35;;;;;;;3.72;1.90;;;4.40;91.40;;;;;;5097681;28;20057;-80
2021/04/08 11:44:00;;;;;;;7.82;2.78;;;4.40;90.70;;;;;;5078599;28;20107;-80
2021/04/08 11:46:52;;;;;;;3.67;2.70;;;4.40;90.20;;;;;;5096800;28;20026;-81
2021/04/08 11:49:22;;;;;;;5.45;2.40;;;4.50;90.40;;;;;;5069319;28;20489;-80
2021/04/08 11:51:51;;;;;;;5.82;2.40;;;4.70;90.10;;;;;;5079357;28;20032;-80
2021/04/08 11:54:29;;;;;;;7.65;3.90;;;4.90;90.00;;;;;;5095940;28;20111;-80
2021/04/08 11:57:05;;;;;;;3.67;2.70;;;5.20;87.90;;;;;;5082810;28;20039;-79
2021/04/08 11:59:34;;;;;;;6.82;2.65;;;5.20;86.90;;;;;;5076695;28;20028;-80
2021/04/08 12:02:00;;;;;;;6.60;2.75;;;5.10;84.70;;;;;;5095918;28;20335;-79
2021/04/08 12:04:28;;;;;;;4.50;2.70;;;5.00;84.20;;;;;;5096224;28;20069;-80
2021/04/08 12:07:19;;;;;;;;;;;5.00;84.70;;;;;;5097678;28;20096;-81
2021/04/08 12:09:47;;;;;;;4.32;2.33;;;5.20;85.10;;;;;;5081129;28;20263;-80
2021/04/08 12:12:13;;;;;;;5.95;2.22;;;5.30;84.20;;;;;;5095788;28;20032;-79
2021/04/08 12:15:06;;;;;;;4.22;1.95;;;5.40;83.20;;;;;;5095947;28;20405;-78
2021/04/08 12:17:38;;;;;;;8.05;2.70;;;5.40;79.80;;;;;;5084121;28;20063;-80
2021/04/08 12:20:18;;;;;;;5.45;2.35;;;5.40;81.10;;;;;;5094962;28;20024;-79
2021/04/08 12:22:44;;;;;;;5.60;2.40;;;5.60;80.60;;;;;;5095625;28;20031;-80
2021/04/08 12:25:18;;;;;;;5.15;3.00;;;5.60;79.10;;;;;;5095901;28;20530;-80
2021/04/08 12:27:47;;;;;;;6.18;2.17;;;5.60;78.90;;;;;;5095914;28;20027;-78
2021/04/08 12:30:14;;;;;;;7.90;3.72;;;5.60;76.40;;;;;;5095014;28;20106;-81
2021/04/08 12:32:40;;;;;;;6.40;2.38;;;5.50;77.70;;;;;;5094865;28;20050;-80
2021/04/08 12:35:11;;;;;;;3.25;1.95;;;5.50;77.40;;;;;;5076344;28;20120;-81
2021/04/08 12:37:46;;;;;;;2.10;1.75;;;5.40;77.20;;;;;;5080876;28;20392;-81
2021/04/08 12:40:12;;;;;;;4.97;1.58;;;5.30;75.20;;;;;;5094402;28;20027;-80
2021/04/08 12:42:39;;;;;;;4.18;1.55;;;5.30;75.80;;;;;;5094225;28;20028;-79
2021/04/08 12:45:06;;;;;;;4.60;2.10;;;5.30;75.50;;;;;;5094391;28;20484;-82
2021/04/08 12:47:32;;;;;;;4.97;1.83;;;5.20;76.60;;;;;;5095480;28;20431;-80
2021/04/08 12:49:57;;;;;;;9.88;3.35;;;5.40;76.90;;;;;;5080561;28;20477;-79
2021/04/08 12:52:23;;;;;;;5.50;2.60;;;5.50;75.60;;;;;;5094752;28;20028;-81
2021/04/08 12:54:49;;;;;;;5.03;2.10;;;5.60;74.90;;;;;;5094565;28;20157;-81
2021/04/08 12:57:15;;;;;;;10.23;3.50;;;5.50;74.00;;;;;;5094377;28;20439;-81
2021/04/08 12:59:41;;;;;;;4.47;2.47;;;5.60;74.80;;;;;;5075844;28;20069;-80
2021/04/08 13:02:11;;;;;;;4.40;2.38;;;5.70;75.10;;;;;;5094367;28;20047;-80
2021/04/08 13:04:42;;;;;;;3.67;2.33;;;5.90;74.30;;;;;;5075845;28;20110;-80
2021/04/08 13:07:10;;;;;;;8.23;3.03;;;6.00;73.20;;;;;;5094332;28;20077;-80